Time;durP1;ratioP1;P1;durP2;ratioP2;P2;SDS_P1;SDS_P2;PMS_P1;PMS_P2;Temp;Humidity;BMP_temperature;BMP_pressure;BME280_temperature;BME280_humidity;BME280_pressure;Samples;Min_cycle;Max_cycle;Signal;HPM_P1;HPM_P2
2021/12/10 00:02:11;;;;;;;28.25;17.83;;;;;;;4.61;72.08;100346.34;5028469;28;20052;-60
2021/12/10 00:04:41;;;;;;;27.48;17.17;;;;;;;4.58;72.21;100344.69;5028868;28;20041;-59
2021/12/10 00:07:14;;;;;;;32.17;19.20;;;;;;;4.54;72.09;100346.56;5028668;28;20529;-60
2021/12/10 00:09:46;;;;;;;32.03;19.60;;;;;;;4.41;71.89;100333.19;5028861;28;20479;-60
2021/12/10 00:12:27;;;;;;;33.88;20.35;;;;;;;4.32;72.20;100351.72;5028748;28;20050;-60
2021/12/10 00:14:55;;;;;;;34.20;20.48;;;;;;;4.34;72.09;100352.53;5028196;28;20046;-60
2021/12/10 00:17:23;;;;;;;30.38;18.90;;;;;;;4.33;71.72;100352.56;5029307;28;20513;-60
2021/12/10 00:19:56;;;;;;;31.95;19.55;;;;;;;4.30;71.94;100356.13;5032677;28;20410;-60
2021/12/10 00:22:37;;;;;;;31.42;18.95;;;;;;;4.28;71.89;100349.28;5032982;28;20041;-60
2021/12/10 00:25:08;;;;;;;30.33;18.63;;;;;;;4.30;71.46;100331.91;5032565;28;20041;-59
2021/12/10 00:27:35;;;;;;;27.85;18.30;;;;;;;4.28;71.57;100336.31;5032444;28;20091;-60
2021/12/10 00:30:15;;;;;;;30.15;17.85;;;;;;;4.20;71.44;100334.88;5032602;28;20409;-60
2021/12/10 00:32:48;;;;;;;29.30;17.98;;;;;;;4.19;71.25;100335.75;5032571;28;20053;-59
2021/12/10 00:35:27;;;;;;;29.60;17.65;;;;;;;4.19;70.96;100337.50;5064684;28;20099;-59
2021/12/10 00:37:55;;;;;;;30.42;17.05;;;;;;;4.18;71.09;100349.66;5032258;28;20127;-60
2021/12/10 00:40:24;;;;;;;29.83;18.17;;;;;;;4.15;70.84;100347.16;5032474;28;20041;-60
2021/12/10 00:42:51;;;;;;;25.38;16.98;;;;;;;4.16;70.28;100354.03;5032154;28;20095;-59
2021/12/10 00:45:18;;;;;;;26.13;16.25;;;;;;;4.11;70.28;100347.31;5032074;28;20053;-59
2021/12/10 00:47:46;;;;;;;30.45;17.02;;;;;;;4.01;69.96;100341.59;5032459;28;20077;-60
2021/12/10 00:50:18;;;;;;;22.67;13.90;;;;;;;3.91;70.64;100346.28;5032142;28;20049;-60
2021/12/10 00:52:46;;;;;;;20.85;13.88;;;;;;;3.84;70.40;100339.63;5032435;28;20099;-60
2021/12/10 00:55:12;;;;;;;19.40;12.73;;;;;;;3.70;70.30;100337.50;5031578;28;20100;-60
2021/12/10 00:57:39;;;;;;;17.23;12.25;;;;;;;3.75;70.58;100351.16;5032008;28;20064;-60
2021/12/10 01:00:11;;;;;;;18.60;12.30;;;;;;;3.66;70.24;100348.91;5031451;28;20042;-60
2021/12/10 01:02:38;;;;;;;19.25;12.45;;;;;;;3.66;70.26;100343.72;5032140;28;20417;-59
2021/12/10 01:05:08;;;;;;;14.77;11.32;;;;;;;3.57;70.54;100344.88;5031935;28;20096;-60
2021/12/10 01:07:36;;;;;;;14.63;10.30;;;;;;;3.56;70.06;100340.59;5048131;28;20049;-60
2021/12/10 01:10:12;;;;;;;16.77;10.45;;;;;;;3.58;70.09;100342.22;5052063;28;20052;-60
2021/12/10 01:12:45;;;;;;;17.77;11.48;;;;;;;3.57;69.85;100340.53;5051873;28;20175;-61
2021/12/10 01:15:38;;;;;;;13.35;10.70;;;;;;;3.59;69.81;100335.28;5051089;28;20056;-60
2021/12/10 01:24:14;;;;;;;14.93;10.88;;;;;;;3.60;69.42;100330.03;5031875;28;20049;-60
2021/12/10 01:29:16;;;;;;;31.13;10.10;;;;;;;3.39;69.64;100322.97;5030943;28;20062;-59
2021/12/10 01:31:43;;;;;;;14.02;10.25;;;;;;;3.40;69.52;100327.28;5031048;28;20505;-60
2021/12/10 01:34:11;;;;;;;13.43;10.32;;;;;;;3.38;69.22;100322.13;5031410;28;20092;-60
2021/12/10 01:36:39;;;;;;;16.75;10.65;;;;;;;3.30;69.50;100333.66;5031598;28;20096;-60
2021/12/10 01:39:10;;;;;;;19.00;10.23;;;;;;;3.35;69.35;100332.63;5030834;28;20506;-59
2021/12/10 01:41:40;;;;;;;16.50;10.00;;;;;;;3.32;69.23;100324.94;5031483;28;20076;-63
2021/12/10 01:44:16;;;;;;;17.73;10.50;;;;;;;3.26;69.17;100328.59;5030996;28;20508;-59
2021/12/10 01:46:44;;;;;;;;;;;;;;;3.12;69.56;100330.78;5031789;28;20108;-59
2021/12/10 01:49:12;;;;;;;14.32;9.43;;;;;;;3.16;69.62;100326.34;5028867;28;20339;-59
2021/12/10 01:51:41;;;;;;;16.00;10.00;;;;;;;3.16;68.90;100321.16;5027841;28;20064;-60
2021/12/10 01:54:17;;;;;;;16.55;10.80;;;;;;;3.23;69.16;100338.22;5029165;28;20528;-60
2021/12/10 01:56:45;;;;;;;17.58;10.88;;;;;;;3.10;69.41;100338.59;5029651;28;20061;-59
2021/12/10 01:59:15;;;;;;;30.63;10.45;;;;;;;3.20;68.85;100328.78;5030518;28;20053;-60
2021/12/10 02:01:49;;;;;;;14.80;10.80;;;;;;;3.23;69.03;100333.03;5030715;28;20493;-59
2021/12/10 02:04:19;;;;;;;15.35;10.32;;;;;;;3.21;69.11;100322.72;5028716;28;20041;-60
2021/12/10 02:06:46;;;;;;;16.17;10.27;;;;;;;3.20;69.03;100323.59;5029571;28;20148;-60
2021/12/10 02:09:13;;;;;;;15.90;9.85;;;;;;;3.23;69.02;100317.47;5038483;28;20095;-59
2021/12/10 02:11:41;;;;;;;14.85;10.80;;;;;;;3.18;69.30;100319.38;5053970;28;20387;-59
2021/12/10 02:14:08;;;;;;;12.02;9.40;;;;;;;3.23;69.16;100322.66;5053830;28;20048;-59
2021/12/10 02:16:36;;;;;;;14.32;9.93;;;;;;;3.13;69.23;100323.84;5053753;28;20095;-59
2021/12/10 02:19:06;;;;;;;15.93;9.27;;;;;;;3.17;69.21;100323.69;5053773;28;20045;-59
2021/12/10 02:21:34;;;;;;;13.23;9.48;;;;;;;3.17;68.80;100322.84;5053795;28;20045;-59
2021/12/10 02:24:02;;;;;;;19.55;9.30;;;;;;;3.12;69.41;100320.41;5052169;28;20094;-59
2021/12/10 02:26:34;;;;;;;13.30;9.68;;;;;;;3.14;69.25;100322.97;5052899;28;20103;-59
2021/12/10 02:29:02;;;;;;;12.60;9.60;;;;;;;3.19;69.08;100313.28;5053655;28;20055;-59
2021/12/10 02:31:29;;;;;;;19.05;9.77;;;;;;;3.09;69.18;100321.34;5053742;28;20056;-65
2021/12/10 02:33:56;;;;;;;15.70;9.45;;;;;;;3.09;69.35;100315.31;5053506;28;20095;-59
2021/12/10 02:36:24;;;;;;;11.38;8.93;;;;;;;3.11;69.36;100310.91;5053437;28;20049;-60
2021/12/10 02:38:53;;;;;;;14.15;8.95;;;;;;;3.13;69.17;100311.72;5053294;28;20053;-60
2021/12/10 02:41:24;;;;;;;12.02;8.75;;;;;;;3.07;68.95;100317.13;5047567;28;20041;-59
2021/12/10 02:43:52;;;;;;;16.02;9.40;;;;;;;3.06;69.29;100311.09;5036905;28;20123;-60
2021/12/10 02:46:19;;;;;;;19.23;9.60;;;;;;;3.04;69.23;100312.03;5033256;28;20543;-60
2021/12/10 02:48:46;;;;;;;12.30;8.65;;;;;;;3.03;69.09;100311.19;5033253;28;20053;-60
2021/12/10 02:51:13;;;;;;;14.68;9.15;;;;;;;3.01;69.23;100297.44;5033480;28;20053;-59
2021/12/10 02:53:46;;;;;;;14.68;9.10;;;;;;;3.00;69.08;100294.91;5033253;28;20045;-59
2021/12/10 02:56:17;;;;;;;14.60;9.13;;;;;;;3.00;69.36;100303.50;5032980;28;20084;-60
2021/12/10 02:58:46;;;;;;;13.35;8.60;;;;;;;2.99;69.22;100299.22;5033155;28;20054;-60
2021/12/10 03:01:21;;;;;;;14.50;8.82;;;;;;;3.04;69.05;100293.91;5032726;28;20050;-60
2021/12/10 03:03:49;;;;;;;18.17;9.10;;;;;;;3.03;68.90;100295.63;5033009;28;20470;-64
2021/12/10 03:06:19;;;;;;;13.65;8.63;;;;;;;3.00;69.03;100284.53;5033132;28;20461;-60
2021/12/10 03:08:50;;;;;;;20.13;10.10;;;;;;;3.00;69.08;100274.16;5032994;28;20103;-60
2021/12/10 03:11:21;;;;;;;14.65;9.02;;;;;;;3.07;68.80;100281.69;5032979;28;20453;-60
2021/12/10 03:13:48;;;;;;;12.07;8.32;;;;;;;3.06;69.02;100285.16;5032752;28;20049;-60
2021/12/10 03:16:15;;;;;;;12.05;9.13;;;;;;;3.06;69.06;100289.50;5033171;28;20072;-60
2021/12/10 03:18:42;;;;;;;19.05;9.32;;;;;;;3.10;69.04;100293.69;5050203;28;20068;-60
2021/12/10 03:21:11;;;;;;;18.88;9.32;;;;;;;3.06;68.98;100289.50;5052593;28;20045;-60
2021/12/10 03:23:42;;;;;;;11.30;8.43;;;;;;;3.06;69.31;100282.56;5052463;28;20053;-60
2021/12/10 03:26:16;;;;;;;20.52;10.00;;;;;;;3.09;68.89;100276.44;5052628;28;20087;-60
2021/12/10 03:28:44;;;;;;;12.73;9.43;;;;;;;3.06;69.18;100271.34;5052518;28;20048;-65
2021/12/10 03:31:11;;;;;;;15.15;9.30;;;;;;;3.10;68.97;100271.19;5052668;28;20057;-60
2021/12/10 03:33:39;;;;;;;17.17;10.20;;;;;;;3.07;69.12;100260.94;5051279;28;20063;-60
2021/12/10 03:36:07;;;;;;;12.88;8.82;;;;;;;3.04;69.34;100273.16;5052367;28;20044;-61
2021/12/10 03:38:35;;;;;;;15.02;9.77;;;;;;;2.99;69.35;100282.84;5052414;28;20045;-62
2021/12/10 03:41:04;;;;;;;13.20;8.63;;;;;;;2.85;69.88;100281.53;5052304;28;20053;-61
2021/12/10 03:43:32;;;;;;;18.60;9.05;;;;;;;2.88;69.57;100277.97;5052196;28;20547;-60
2021/12/10 03:46:00;;;;;;;17.85;10.20;;;;;;;2.84;69.93;100268.63;5052380;28;20060;-60
2021/12/10 03:48:33;;;;;;;20.30;9.07;;;;;;;2.88;69.49;100268.47;5052492;28;20125;-60
2021/12/10 03:51:02;;;;;;;17.02;10.38;;;;;;;2.88;69.59;100271.06;5050859;28;20107;-60
2021/12/10 03:53:29;;;;;;;24.55;11.00;;;;;;;2.90;69.55;100268.44;5052412;28;20099;-60
2021/12/10 03:56:00;;;;;;;17.25;10.32;;;;;;;2.91;69.46;100264.94;5051871;28;20053;-60
2021/12/10 03:58:27;;;;;;;16.45;10.23;;;;;;;2.92;69.45;100259.69;5052103;28;20056;-60
2021/12/10 04:00:56;;;;;;;22.83;9.68;;;;;;;2.92;69.35;100262.28;5052147;28;20404;-63
2021/12/10 04:03:25;;;;;;;22.15;10.15;;;;;;;2.91;69.48;100262.34;5048595;28;20095;-68
2021/12/10 04:05:53;;;;;;;14.48;9.52;;;;;;;2.95;69.71;100261.34;5047188;28;20045;-63
2021/12/10 04:08:20;;;;;;;17.98;10.02;;;;;;;2.94;69.76;100262.25;5049048;28;20056;-60
2021/12/10 04:10:48;;;;;;;27.58;10.55;;;;;;;2.71;70.47;100255.22;5048728;28;20049;-62
2021/12/10 04:13:15;;;;;;;17.30;10.98;;;;;;;2.77;70.50;100237.72;5049028;28;20049;-62
2021/12/10 04:15:42;;;;;;;25.52;10.68;;;;;;;2.84;70.12;100230.59;5048776;28;20087;-62
2021/12/10 04:18:10;;;;;;;18.92;10.13;;;;;;;2.87;70.07;100229.63;5048702;28;20132;-62
2021/12/10 04:20:38;;;;;;;19.05;10.13;;;;;;;2.89;70.00;100228.69;5049019;28;20478;-62
2021/12/10 04:23:08;;;;;;;19.55;10.35;;;;;;;2.87;70.22;100230.50;5047748;28;20052;-62
2021/12/10 04:25:36;;;;;;;20.67;10.43;;;;;;;2.88;70.02;100232.19;5048685;28;20041;-62
2021/12/10 04:28:07;;;;;;;18.83;10.30;;;;;;;2.86;70.18;100225.38;5047968;28;20099;-62
2021/12/10 04:30:39;;;;;;;17.00;10.43;;;;;;;2.87;70.21;100227.03;5046432;28;20106;-63
2021/12/10 04:33:12;;;;;;;27.08;10.63;;;;;;;2.84;70.36;100222.81;5046016;28;20041;-62
2021/12/10 04:35:40;;;;;;;19.30;11.55;;;;;;;2.86;69.93;100225.38;5048583;28;20122;-62
2021/12/10 04:38:07;;;;;;;19.42;10.43;;;;;;;2.89;70.02;100225.25;5048599;28;20068;-62
2021/12/10 04:40:34;;;;;;;29.02;10.23;;;;;;;2.86;70.14;100228.81;5047237;28;20095;-62
2021/12/10 04:43:01;;;;;;;14.95;9.45;;;;;;;2.85;70.45;100239.22;5048362;28;20049;-62
2021/12/10 04:45:28;;;;;;;17.25;8.40;;;;;;;2.81;70.13;100233.28;5048501;28;20041;-62
2021/12/10 04:47:56;;;;;;;23.33;9.90;;;;;;;2.82;70.10;100232.41;5048500;28;20914;-62
2021/12/10 04:50:26;;;;;;;17.48;9.55;;;;;;;2.78;70.07;100223.88;5048347;28;20057;-63
2021/12/10 04:52:53;;;;;;;15.68;8.27;;;;;;;2.77;70.09;100231.69;5048479;28;20045;-63
2021/12/10 04:55:20;;;;;;;14.05;8.50;;;;;;;2.80;70.03;100230.75;5048277;28;20056;-62
2021/12/10 04:57:47;;;;;;;12.27;7.60;;;;;;;2.78;69.97;100236.84;5047186;28;20551;-62
2021/12/10 05:00:19;;;;;;;11.95;8.27;;;;;;;2.78;69.76;100229.06;5048163;28;20049;-62
2021/12/10 05:02:46;;;;;;;18.92;8.88;;;;;;;2.78;69.78;100238.56;5048488;28;20045;-62
2021/12/10 05:05:14;;;;;;;12.98;8.75;;;;;;;2.75;69.76;100241.25;5051900;28;20052;-69
2021/12/10 05:07:41;;;;;;;14.85;8.55;;;;;;;2.78;69.71;100246.31;5051805;28;20062;-63
2021/12/10 05:10:13;;;;;;;14.90;8.35;;;;;;;2.74;69.71;100244.75;5051719;28;20049;-62
2021/12/10 05:12:40;;;;;;;13.25;8.95;;;;;;;2.74;69.60;100242.16;5052266;28;20076;-62
2021/12/10 05:15:11;;;;;;;13.40;8.57;;;;;;;2.74;69.71;100237.84;5050561;28;20099;-60
2021/12/10 05:17:39;;;;;;;16.00;8.20;;;;;;;2.70;69.72;100238.81;5051863;28;20045;-60
2021/12/10 05:20:12;;;;;;;13.52;8.57;;;;;;;2.74;69.56;100237.84;5051428;28;20148;-61
2021/12/10 05:22:43;;;;;;;16.80;8.50;;;;;;;2.72;69.69;100252.56;5051652;28;20501;-61
2021/12/10 05:25:10;;;;;;;16.33;8.50;;;;;;;2.72;69.53;100255.16;5051201;28;20481;-61
2021/12/10 05:27:38;;;;;;;17.63;9.20;;;;;;;2.73;69.75;100251.69;5051554;28;20905;-61
2021/12/10 05:30:08;;;;;;;15.20;9.10;;;;;;;2.75;69.66;100249.03;5050402;28;20733;-61
2021/12/10 05:32:35;;;;;;;15.65;9.65;;;;;;;2.72;69.58;100257.75;5051556;28;20045;-61
2021/12/10 05:35:04;;;;;;;13.00;8.60;;;;;;;2.66;70.13;100259.69;5051455;28;20049;-61
2021/12/10 05:37:30;;;;;;;11.32;8.00;;;;;;;2.67;70.00;100261.41;5051685;28;20056;-61
2021/12/10 05:39:57;;;;;;;15.25;8.88;;;;;;;2.63;69.86;100260.66;5051296;28;20386;-61
2021/12/10 05:42:24;;;;;;;17.08;9.07;;;;;;;2.65;70.18;100258.00;5051254;28;20045;-61
2021/12/10 05:44:51;;;;;;;13.07;8.23;;;;;;;2.65;69.94;100247.63;5051181;28;20051;-61
2021/12/10 05:47:18;;;;;;;13.73;8.63;;;;;;;2.69;70.02;100247.50;5050119;28;20053;-61
2021/12/10 05:49:45;;;;;;;13.95;8.20;;;;;;;2.67;69.71;100245.84;5051226;28;20044;-61
2021/12/10 05:52:14;;;;;;;10.68;8.43;;;;;;;2.66;69.94;100251.94;5050550;28;20060;-61
2021/12/10 05:54:43;;;;;;;11.00;8.13;;;;;;;2.68;69.94;100253.56;5051155;28;20049;-61
2021/12/10 05:57:12;;;;;;;12.60;8.77;;;;;;;2.67;69.93;100249.28;5050885;28;20231;-61
2021/12/10 05:59:39;;;;;;;13.38;8.65;;;;;;;2.66;69.75;100238.97;5050942;28;20067;-61
2021/12/10 06:02:18;;;;;;;13.43;7.65;;;;;;;2.70;69.86;100246.56;5050502;28;20041;-67
2021/12/10 06:04:47;;;;;;;12.23;8.35;;;;;;;2.71;69.64;100237.91;5048017;28;20098;-63
2021/12/10 06:07:14;;;;;;;10.60;8.23;;;;;;;2.73;69.55;100240.44;5051022;28;20497;-63
2021/12/10 06:09:41;;;;;;;12.95;8.73;;;;;;;2.76;69.50;100227.41;5046180;28;20058;-62
2021/12/10 06:12:08;;;;;;;14.35;9.07;;;;;;;2.77;69.17;100237.72;5046133;28;20071;-63
2021/12/10 06:14:34;;;;;;;11.95;8.73;;;;;;;2.79;68.96;100229.88;5050615;28;20060;-61
2021/12/10 06:17:01;;;;;;;11.35;9.10;;;;;;;2.75;69.23;100231.72;5042008;28;20046;-61
2021/12/10 06:19:28;;;;;;;13.82;8.73;;;;;;;2.75;69.25;100236.06;5040751;28;20044;-60
2021/12/10 06:21:55;;;;;;;11.73;9.40;;;;;;;2.71;69.28;100247.44;5050345;28;20052;-63
2021/12/10 06:24:22;;;;;;;10.25;8.02;;;;;;;2.69;69.23;100251.81;5050439;28;20045;-61
2021/12/10 06:26:52;;;;;;;10.35;8.55;;;;;;;2.67;69.21;100251.88;5050284;28;20052;-65
2021/12/10 06:29:23;;;;;;;11.63;9.52;;;;;;;2.65;69.17;100247.63;5050265;28;20053;-62
2021/12/10 06:31:50;;;;;;;14.82;8.07;;;;;;;2.64;68.96;100251.97;5050333;28;20083;-68
2021/12/10 06:34:17;;;;;;;11.40;8.85;;;;;;;2.63;69.04;100247.69;5050218;28;20095;-63
2021/12/10 06:36:44;;;;;;;13.85;8.52;;;;;;;2.52;69.16;100250.59;5049061;28;20045;-60
2021/12/10 06:39:11;;;;;;;11.77;8.75;;;;;;;2.47;69.44;100254.25;5049941;28;20060;-60
2021/12/10 06:41:38;;;;;;;14.38;8.35;;;;;;;2.51;69.44;100256.69;5050126;28;20136;-60
2021/12/10 06:44:04;;;;;;;13.52;8.07;;;;;;;2.52;69.27;100254.94;5050003;28;20497;-62
2021/12/10 06:46:34;;;;;;;11.85;7.80;;;;;;;2.38;69.46;100260.56;5050286;28;20041;-62
2021/12/10 06:49:01;;;;;;;20.45;9.00;;;;;;;2.36;69.47;100252.84;5049958;28;20060;-62
2021/12/10 06:51:28;;;;;;;12.10;8.48;;;;;;;2.71;68.97;100261.22;5049926;28;20045;-61
2021/12/10 06:53:54;;;;;;;12.63;9.73;;;;;;;2.63;69.10;100258.06;5047094;28;20048;-61
2021/12/10 06:56:25;;;;;;;17.25;10.50;;;;;;;2.64;69.21;100251.97;5049341;28;20064;-60
2021/12/10 06:58:52;;;;;;;17.08;10.07;;;;;;;2.61;69.20;100249.47;5049262;28;20110;-61
2021/12/10 07:01:24;;;;;;;19.40;9.48;;;;;;;2.57;69.15;100247.88;5049617;28;20547;-66
2021/12/10 07:03:53;;;;;;;22.25;12.35;;;;;;;2.61;69.17;100233.94;5049433;28;20045;-61
2021/12/10 07:06:20;;;;;;;21.88;11.90;;;;;;;2.64;69.14;100220.03;5048542;28;20505;-61
2021/12/10 07:08:48;;;;;;;30.30;13.15;;;;;;;2.58;69.00;100216.75;5049215;28;20103;-60
2021/12/10 07:11:18;;;;;;;27.77;13.13;;;;;;;2.58;69.27;100208.13;5046892;28;20044;-60
2021/12/10 07:13:49;;;;;;;19.60;11.00;;;;;;;2.53;69.50;100197.09;5048409;28;20057;-61
2021/12/10 07:16:18;;;;;;;16.65;10.07;;;;;;;2.64;69.34;100195.00;5048646;28;20068;-60
2021/12/10 07:18:45;;;;;;;30.02;10.48;;;;;;;2.68;69.13;100200.91;5048525;28;20083;-62
2021/12/10 07:21:12;;;;;;;28.35;12.57;;;;;;;2.70;69.00;100194.78;5048624;28;20374;-61
2021/12/10 07:23:42;;;;;;;21.27;11.52;;;;;;;2.71;69.25;100195.63;5048435;28;20103;-61
2021/12/10 07:26:13;;;;;;;24.67;12.77;;;;;;;2.69;69.15;100195.69;5039322;28;20044;-68
2021/12/10 07:28:40;;;;;;;19.02;11.18;;;;;;;2.71;69.31;100193.88;5044631;28;20055;-67
2021/12/10 07:31:08;;;;;;;20.60;11.80;;;;;;;2.77;68.97;100190.25;5048323;28;20087;-68
2021/12/10 07:33:36;;;;;;;20.77;11.90;;;;;;;2.82;68.95;100179.72;5048893;28;20405;-67
2021/12/10 07:36:05;;;;;;;19.65;11.32;;;;;;;2.89;68.76;100183.81;5048541;28;20051;-62
2021/12/10 07:38:33;;;;;;;17.27;10.60;;;;;;;2.89;68.71;100188.97;5044570;28;20126;-61
2021/12/10 07:41:00;;;;;;;16.70;11.15;;;;;;;2.86;68.66;100184.75;5048070;28;20048;-65
2021/12/10 07:43:27;;;;;;;20.75;11.98;;;;;;;2.86;68.92;100181.31;5047243;28;20049;-60
2021/12/10 07:45:54;;;;;;;20.30;11.35;;;;;;;2.89;68.75;100187.22;5047673;28;20056;-61
2021/12/10 07:48:27;;;;;;;16.30;11.32;;;;;;;2.91;68.75;100187.19;5047804;28;20041;-65
2021/12/10 07:51:00;;;;;;;17.27;11.35;;;;;;;2.99;68.39;100187.78;5046147;28;20350;-60
2021/12/10 07:53:29;;;;;;;20.20;11.63;;;;;;;3.00;68.60;100183.44;5047800;28;20146;-62
2021/12/10 07:55:58;;;;;;;24.83;12.98;;;;;;;2.98;68.75;100187.81;5045112;28;20057;-60
2021/12/10 07:58:25;;;;;;;24.00;11.45;;;;;;;3.00;68.60;100181.69;5047457;28;20041;-61
2021/12/10 08:00:52;;;;;;;25.08;12.27;;;;;;;3.03;68.59;100176.38;5046455;28;20190;-60
2021/12/10 08:03:20;;;;;;;19.38;10.98;;;;;;;3.07;68.43;100164.16;5047943;28;20080;-60
2021/12/10 08:05:47;;;;;;;22.55;11.35;;;;;;;3.03;68.59;100170.38;5047488;28;20041;-60
2021/12/10 08:08:14;;;;;;;20.92;12.38;;;;;;;3.08;68.48;100163.28;5047427;28;20132;-59
2021/12/10 08:10:43;;;;;;;20.25;12.02;;;;;;;3.09;68.67;100152.84;5047118;28;20079;-59
2021/12/10 08:13:09;;;;;;;23.80;11.65;;;;;;;3.15;68.47;100144.03;5047852;28;20056;-60
2021/12/10 08:15:36;;;;;;;19.20;10.75;;;;;;;3.19;68.49;100147.34;5043861;28;20119;-60
2021/12/10 08:18:05;;;;;;;19.63;11.57;;;;;;;3.85;67.70;100144.06;5047792;28;20124;-60
2021/12/10 08:20:32;;;;;;;17.40;11.68;;;;;;;3.61;67.90;100138.91;5048035;28;20106;-60
2021/12/10 08:22:59;;;;;;;17.27;10.45;;;;;;;3.49;68.22;100131.56;5047116;28;20056;-60
2021/12/10 08:25:27;;;;;;;25.63;12.15;;;;;;;3.43;68.11;100130.06;5047607;28;20139;-62
2021/12/10 08:27:55;;;;;;;19.55;11.95;;;;;;;3.43;68.35;100123.13;5047645;28;20045;-63
2021/12/10 08:30:24;;;;;;;18.45;11.25;;;;;;;3.46;68.36;100121.31;5047238;28;20405;-60
2021/12/10 08:32:54;;;;;;;25.23;12.35;;;;;;;3.46;68.39;100116.97;5045575;28;20543;-60
2021/12/10 08:35:26;;;;;;;21.02;11.65;;;;;;;3.45;68.26;100115.28;5047875;28;20067;-61
2021/12/10 08:37:54;;;;;;;14.77;10.73;;;;;;;3.47;68.15;100117.81;5047750;28;20618;-61
2021/12/10 08:40:29;;;;;;;14.43;10.65;;;;;;;3.61;67.96;100123.34;5051732;28;20048;-60
2021/12/10 08:42:56;;;;;;;15.40;10.05;;;;;;;3.62;67.87;100122.44;5051632;28;20062;-61
2021/12/10 08:45:24;;;;;;;15.30;10.35;;;;;;;3.57;68.00;100122.59;5051937;28;20053;-62
2021/12/10 08:47:52;;;;;;;19.13;12.50;;;;;;;3.58;68.10;100123.44;5049871;28;20115;-69
2021/12/10 08:50:22;;;;;;;23.05;12.13;;;;;;;3.62;67.99;100124.16;5031846;28;20107;-61
2021/12/10 08:52:51;;;;;;;16.50;11.48;;;;;;;3.67;67.71;100128.28;5031173;28;20124;-61
2021/12/10 08:55:18;;;;;;;19.25;12.48;;;;;;;3.72;67.81;100118.59;5035818;28;20048;-61
2021/12/10 08:57:46;;;;;;;19.45;11.98;;;;;;;3.86;67.63;100115.47;5051851;28;20048;-62
2021/12/10 09:00:13;;;;;;;20.05;13.00;;;;;;;3.97;67.50;100104.63;5048837;28;20437;-60
2021/12/10 09:02:40;;;;;;;29.25;15.20;;;;;;;4.00;67.27;100106.25;5040382;28;20112;-60
2021/12/10 09:05:09;;;;;;;24.35;15.55;;;;;;;4.05;67.11;100097.41;5031200;28;20045;-61
2021/12/10 09:07:38;;;;;;;25.15;15.05;;;;;;;4.13;66.97;100098.84;5031369;28;20045;-61
2021/12/10 09:10:08;;;;;;;46.53;17.13;;;;;;;4.18;67.13;100095.16;5031479;28;20056;-61
2021/12/10 09:12:36;;;;;;;31.08;14.65;;;;;;;4.19;67.04;100091.66;5031198;28;20049;-61
2021/12/10 09:15:07;;;;;;;19.85;12.32;;;;;;;4.14;67.13;100088.41;5031402;28;20057;-61
2021/12/10 09:17:35;;;;;;;21.17;12.57;;;;;;;4.12;67.28;100090.22;5031664;28;20053;-61
2021/12/10 09:20:06;;;;;;;28.10;14.40;;;;;;;4.08;67.54;100093.84;5044087;28;20076;-61
2021/12/10 09:22:33;;;;;;;17.83;12.07;;;;;;;4.23;67.39;100098.41;5049814;28;20056;-62
2021/12/10 09:25:00;;;;;;;21.98;12.93;;;;;;;4.30;67.29;100103.34;5050342;28;20041;-61
2021/12/10 09:27:27;;;;;;;19.05;13.68;;;;;;;4.26;67.63;100107.81;5051041;28;20444;-61
2021/12/10 09:29:55;;;;;;;20.92;12.30;;;;;;;4.28;67.62;100118.16;5050408;28;20048;-61
2021/12/10 09:32:24;;;;;;;14.90;10.65;;;;;;;4.29;67.59;100114.66;5050394;28;20041;-61
2021/12/10 09:34:57;;;;;;;14.45;9.50;;;;;;;4.32;67.43;100115.38;5047931;28;20450;-61
2021/12/10 09:37:24;;;;;;;14.85;10.57;;;;;;;4.40;67.45;100118.47;5048934;28;20041;-61
2021/12/10 09:39:53;;;;;;;17.80;12.00;;;;;;;4.42;67.29;100123.63;5047696;28;20132;-60
2021/12/10 09:42:22;;;;;;;14.50;10.32;;;;;;;4.44;67.27;100118.38;5050106;28;20041;-61
2021/12/10 09:44:52;;;;;;;14.93;10.38;;;;;;;4.47;67.24;100126.03;5050572;28;20692;-61
2021/12/10 09:47:19;;;;;;;10.80;9.07;;;;;;;4.48;67.38;100114.72;5050974;28;20474;-61
2021/12/10 09:49:50;;;;;;;20.70;13.25;;;;;;;4.49;67.52;100117.25;5050619;28;20045;-61
2021/12/10 09:52:21;;;;;;;15.98;10.50;;;;;;;4.46;67.54;100101.81;5049699;28;20048;-61
2021/12/10 09:54:48;;;;;;;13.88;10.52;;;;;;;4.48;67.71;100104.34;5050264;28;20053;-61
2021/12/10 09:57:20;;;;;;;14.95;10.63;;;;;;;4.48;67.81;100100.00;5050241;28;20056;-61
2021/12/10 09:59:51;;;;;;;13.20;9.55;;;;;;;4.48;67.72;100097.41;5050375;28;20489;-61
2021/12/10 10:02:20;;;;;;;13.82;9.95;;;;;;;4.51;67.82;100092.06;5050124;28;20049;-61
2021/12/10 10:04:49;;;;;;;16.95;11.30;;;;;;;4.53;67.88;100097.19;5050271;28;20041;-61
2021/12/10 10:07:28;;;;;;;39.45;22.42;;;;;;;4.53;68.12;100082.47;5050627;28;20060;-61
2021/12/10 10:10:04;;;;;;;48.70;24.65;;;;;;;4.54;68.22;100081.53;5048692;28;20049;-61
2021/12/10 10:12:34;;;;;;;24.38;15.52;;;;;;;4.54;68.23;100075.50;5050413;28;20061;-61
2021/12/10 10:15:09;;;;;;;39.58;20.10;;;;;;;4.59;68.22;100068.34;5049947;28;20114;-67
2021/12/10 10:17:51;;;;;;;28.40;16.27;;;;;;;4.62;68.34;100065.66;5048508;28;20045;-61
2021/12/10 10:20:19;;;;;;;48.00;24.38;;;;;;;4.64;68.34;100063.81;5049590;28;20045;-61
2021/12/10 10:22:47;;;;;;;32.58;17.27;;;;;;;4.67;68.38;100060.22;5049731;28;20247;-61
2021/12/10 10:25:16;;;;;;;47.92;25.75;;;;;;;4.69;68.62;100064.44;5049507;28;20049;-67
2021/12/10 10:27:43;;;;;;;43.28;22.88;;;;;;;4.70;68.52;100052.31;5030418;28;20041;-61
2021/12/10 10:30:25;;;;;;;28.45;17.58;;;;;;;4.70;68.79;100052.31;5029980;28;20128;-61
2021/12/10 10:32:54;;;;;;;23.65;16.98;;;;;;;4.74;68.88;100039.09;5029754;28;20513;-62
2021/12/10 10:35:27;;;;;;;18.77;12.98;;;;;;;4.80;69.02;100029.34;5030147;28;20056;-61
2021/12/10 10:37:55;;;;;;;22.33;13.35;;;;;;;4.84;68.75;100021.34;5042432;28;20064;-61
2021/12/10 10:40:27;;;;;;;22.95;13.23;;;;;;;4.90;68.86;100009.81;5049854;28;20084;-61
2021/12/10 10:42:55;;;;;;;23.55;14.43;;;;;;;4.99;68.80;100011.16;5047330;28;20055;-61
2021/12/10 10:45:26;;;;;;;27.23;15.15;;;;;;;5.02;68.92;100014.47;5049994;28;20924;-61
2021/12/10 10:47:56;;;;;;;62.58;36.63;;;;;;;5.03;68.98;100016.16;5049588;28;20045;-62
2021/12/10 10:50:48;;;;;;;56.97;31.15;;;;;;;5.05;69.17;100009.16;5049413;28;20094;-61
2021/12/10 10:53:19;;;;;;;102.28;46.47;;;;;;;4.99;69.69;100004.22;5049076;28;20055;-61
2021/12/10 10:55:58;;;;;;;79.78;35.70;;;;;;;5.05;69.75;99998.75;5041306;28;20059;-61
2021/12/10 10:58:30;;;;;;;170.63;70.50;;;;;;;5.01;69.90;99988.56;5049348;28;20045;-61
2021/12/10 11:01:21;;;;;;;59.67;27.73;;;;;;;5.09;69.91;99986.44;5048744;28;20045;-61
2021/12/10 11:04:03;;;;;;;60.38;27.38;;;;;;;5.14;69.89;99984.50;5038100;28;20503;-61
2021/12/10 11:06:39;;;;;;;28.88;16.13;;;;;;;5.19;69.73;99981.66;5048920;28;20049;-65
2021/12/10 11:09:17;;;;;;;26.42;14.98;;;;;;;5.23;69.83;99968.44;5044978;28;20840;-65
2021/12/10 11:11:49;;;;;;;18.67;12.13;;;;;;;5.29;70.08;99959.50;5036748;28;20416;-61
2021/12/10 11:14:21;;;;;;;17.80;13.23;;;;;;;5.32;70.02;99951.56;5029390;28;20056;-65
2021/12/10 11:16:52;;;;;;;17.58;12.98;;;;;;;5.34;69.98;99946.28;5042944;28;20099;-60
2021/12/10 11:19:37;;;;;;;25.67;15.38;;;;;;;5.34;70.21;99934.09;5049087;28;20524;-62
2021/12/10 11:22:13;;;;;;;24.42;14.07;;;;;;;5.37;70.47;99928.78;5048494;28;20053;-61
2021/12/10 11:24:46;;;;;;;20.85;14.05;;;;;;;5.37;70.63;99912.28;5049018;28;20049;-61
2021/12/10 11:27:16;;;;;;;23.17;15.45;;;;;;;5.38;70.63;99917.44;5048136;28;20106;-61
2021/12/10 11:29:50;;;;;;;24.45;16.05;;;;;;;5.38;70.86;99907.03;5048495;28;20036;-61
2021/12/10 11:32:26;;;;;;;24.08;16.10;;;;;;;5.40;70.95;99915.59;5048468;28;20107;-61
2021/12/10 11:35:04;;;;;;;21.27;14.27;;;;;;;5.38;70.92;99912.25;5045810;28;20045;-61
2021/12/10 11:37:46;;;;;;;19.77;13.70;;;;;;;5.36;71.26;99908.88;5047099;28;20045;-61
2021/12/10 11:40:33;;;;;;;21.70;14.32;;;;;;;5.34;71.24;99913.28;5047186;28;20122;-61
2021/12/10 11:48:51;;;;;;;20.20;13.55;;;;;;;5.49;71.12;99906.50;5048645;28;20052;-61